Time;durP1;ratioP1;P1;durP2;ratioP2;P2;SDS_P1;SDS_P2;PMS_P1;PMS_P2;Temp;Humidity;BMP_temperature;BMP_pressure;BME280_temperature;BME280_humidity;BME280_pressure;Samples;Min_cycle;Max_cycle;Signal;HPM_P1;HPM_P2
2022/06/02 00:02:57;;;;;;;2.40;2.20;;;;;;;16.18;66.20;98680.19;219727;1274;25443;-68
2022/06/02 00:08:15;;;;;;;3.60;2.60;;;;;;;15.91;67.96;98686.72;219395;1275;22554;-68
2022/06/02 00:13:38;;;;;;;3.10;2.90;;;;;;;15.70;69.33;98703.92;219034;1275;309669;-68
2022/06/02 00:18:58;;;;;;;3.60;3.00;;;;;;;15.50;71.50;98709.68;219601;1274;22761;-68
2022/06/02 00:24:25;;;;;;;3.70;3.00;;;;;;;15.29;72.24;98711.03;219212;1274;26536;-68
2022/06/02 00:30:05;;;;;;;3.20;2.90;;;;;;;15.07;73.94;98719.26;219545;1275;22565;-68
2022/06/02 00:36:01;;;;;;;3.20;2.50;;;;;;;14.85;75.18;98723.08;219832;1274;24265;-68
2022/06/02 00:41:38;;;;;;;2.20;2.00;;;;;;;14.66;78.86;98720.40;218845;1274;25295;-68
2022/06/02 00:47:02;;;;;;;2.70;2.40;;;;;;;14.52;77.52;98712.41;219484;1274;22554;-68
2022/06/02 00:52:13;;;;;;;4.20;2.30;;;;;;;14.38;77.55;98717.73;219414;1275;25293;-67
2022/06/02 00:57:35;;;;;;;2.80;2.60;;;;;;;14.28;77.21;98710.27;219706;1275;24008;-68
2022/06/02 01:03:32;;;;;;;2.90;2.10;;;;;;;14.20;77.52;98706.59;219629;1274;25266;-68
2022/06/02 01:09:09;;;;;;;3.20;2.40;;;;;;;14.12;78.19;98707.84;219710;1274;24243;-68
2022/06/02 01:14:23;;;;;;;2.70;2.50;;;;;;;14.05;78.54;98711.50;219508;1274;22553;-70
2022/06/02 01:20:36;;;;;;;3.90;2.50;;;;;;;13.96;78.88;98717.29;219647;1275;22529;-68
2022/06/02 01:25:54;;;;;;;3.20;2.90;;;;;;;13.86;79.48;98717.08;218773;1276;25258;-67
2022/06/02 01:31:15;;;;;;;3.80;3.30;;;;;;;13.79;79.92;98725.13;219176;1277;22654;-68
2022/06/02 01:36:58;;;;;;;3.90;3.40;;;;;;;13.74;80.38;98725.55;219227;1275;22689;-68
2022/06/02 01:42:21;;;;;;;3.60;3.20;;;;;;;13.69;80.78;98715.65;219434;1274;22556;-68
2022/06/02 01:47:42;;;;;;;4.10;3.70;;;;;;;13.65;81.39;98709.83;219546;1273;24269;-68
2022/06/02 01:53:25;;;;;;;4.90;3.80;;;;;;;13.62;81.73;98703.77;219337;1273;24396;-68
2022/06/02 01:58:36;;;;;;;4.70;4.20;;;;;;;13.59;82.44;98700.09;219559;1275;27534;-67
2022/06/02 02:03:51;;;;;;;4.70;4.00;;;;;;;13.58;82.34;98689.13;219234;1274;22550;-68
2022/06/02 02:09:29;;;;;;;4.70;4.30;;;;;;;13.60;82.32;98682.79;219550;1274;23430;-67
2022/06/02 02:15:12;;;;;;;5.10;4.60;;;;;;;13.60;82.43;98672.92;219207;1275;25265;-68
2022/06/02 02:21:07;;;;;;;5.40;4.70;;;;;;;13.61;82.76;98677.22;219357;1274;24087;-69
2022/06/02 02:26:32;;;;;;;5.60;5.10;;;;;;;13.59;82.83;98675.55;219397;1274;24297;-69
2022/06/02 02:32:35;;;;;;;6.80;5.90;;;;;;;13.58;83.10;98682.35;219663;1274;26222;-68
2022/06/02 02:38:21;;;;;;;7.30;6.20;;;;;;;13.56;83.21;98694.32;219086;1276;25378;-67
2022/06/02 02:43:53;;;;;;;7.80;7.10;;;;;;;13.55;83.32;98692.56;219058;1277;24481;-68
2022/06/02 02:49:37;;;;;;;;;;;;;;;;;;;;;
2022/06/02 02:55:55;;;;;;;;;;;;;;;;;;;;;
2022/06/02 03:01:40;;;;;;;7.60;6.90;;;;;;;13.52;83.74;98692.69;219674;1274;26345;-68
2022/06/02 03:06:43;;;;;;;9.10;7.60;;;;;;;13.50;83.87;98695.05;220087;1274;23841;-69
2022/06/02 03:12:13;;;;;;;7.80;7.10;;;;;;;13.50;83.96;98691.02;219543;1274;25303;-68
2022/06/02 03:17:57;;;;;;;7.60;6.90;;;;;;;13.53;84.12;98686.52;219919;1274;22554;-69
2022/06/02 03:24:09;;;;;;;7.90;7.10;;;;;;;13.59;84.43;98702.02;219699;1274;24109;-68
2022/06/02 03:30:33;;;;;;;7.70;7.10;;;;;;;13.63;84.54;98697.28;219326;1274;25445;-71
2022/06/02 03:36:39;;;;;;;9.90;7.30;;;;;;;13.70;84.85;98688.45;219580;1274;24335;-68
2022/06/02 03:42:23;;;;;;;;;;;;;;;;;;;;;
2022/06/02 03:48:48;;;;;;;7.10;6.40;;;;;;;13.84;84.96;98693.16;219548;1273;22752;-68
2022/06/02 03:54:43;;;;;;;7.30;6.70;;;;;;;13.85;85.21;98705.67;219758;1274;22531;-68
2022/06/02 04:00:28;;;;;;;7.10;6.50;;;;;;;13.86;85.53;98706.31;219443;1274;24302;-69
2022/06/02 04:06:25;;;;;;;6.80;6.20;;;;;;;13.89;85.66;98712.90;219415;1276;22711;-69
2022/06/02 04:17:30;;;;;;;7.50;6.80;;;;;;;13.96;86.02;98717.56;219445;1274;22706;-68
2022/06/02 04:22:51;;;;;;;8.20;7.30;;;;;;;13.98;86.26;98719.65;219532;1274;24645;-68
2022/06/02 04:28:33;;;;;;;;;;;;;;;13.98;86.57;98720.29;219860;1273;24434;-68
2022/06/02 04:33:42;;;;;;;10.80;7.60;;;;;;;14.03;86.84;98717.48;219443;1273;22550;-68
2022/06/02 04:38:53;;;;;;;8.80;7.80;;;;;;;14.16;86.92;98715.98;219622;1273;24488;-68
2022/06/02 04:44:27;;;;;;;7.40;6.70;;;;;;;14.35;86.65;98720.83;219768;1274;24405;-68
2022/06/02 04:50:16;;;;;;;9.20;8.10;;;;;;;14.54;86.30;98724.63;219662;1273;25244;-69
2022/06/02 04:55:40;;;;;;;9.20;7.20;;;;;;;14.63;85.78;98722.66;219459;1273;22535;-69
2022/06/02 05:01:23;;;;;;;7.40;6.30;;;;;;;14.72;85.71;98723.11;219898;1273;25362;-72
2022/06/02 05:06:43;;;;;;;8.70;7.10;;;;;;;14.82;85.48;98729.27;219810;1273;24467;-67
2022/06/02 05:12:14;;;;;;;8.00;7.20;;;;;;;14.98;85.31;98732.53;219368;1274;24428;-68
2022/06/02 05:18:16;;;;;;;7.00;6.30;;;;;;;15.21;84.95;98739.14;219559;1273;22543;-68
2022/06/02 05:24:43;;;;;;;5.10;4.60;;;;;;;15.50;84.59;98741.27;219315;1274;26451;-68
2022/06/02 05:30:14;;;;;;;;;;;;;;;15.76;83.93;98745.50;219470;1274;22557;-68
2022/06/02 05:35:47;;;;;;;5.80;5.20;;;;;;;15.98;83.43;98756.61;219433;1274;24386;-68
2022/06/02 05:41:28;;;;;;;5.20;4.20;;;;;;;16.14;82.77;98760.80;219475;1274;25313;-68
2022/06/02 05:46:53;;;;;;;4.80;3.90;;;;;;;16.20;82.09;98790.09;220224;1273;25936;-68
2022/06/02 05:52:31;;;;;;;4.40;3.40;;;;;;;16.19;81.64;98798.74;219950;1274;25353;-67
2022/06/02 05:57:33;;;;;;;3.00;2.80;;;;;;;16.27;81.61;98814.04;219260;1274;25251;-68
2022/06/02 06:03:39;;;;;;;3.90;3.20;;;;;;;16.36;81.38;98824.77;218783;1274;24101;-67
2022/06/02 06:09:05;;;;;;;3.40;3.10;;;;;;;16.44;80.82;98823.91;218568;1274;25351;-68
2022/06/02 06:14:18;;;;;;;3.20;2.90;;;;;;;16.56;80.44;98826.06;218980;1273;22967;-68
2022/06/02 06:19:31;;;;;;;3.40;3.10;;;;;;;16.67;79.94;98825.25;219335;1274;23806;-67
2022/06/02 06:25:15;;;;;;;3.10;2.80;;;;;;;16.87;79.73;98833.59;219371;1274;24176;-68
2022/06/02 06:30:45;;;;;;;3.00;2.80;;;;;;;17.11;78.90;98840.67;219158;1274;26019;-68
2022/06/02 06:36:21;;;;;;;2.80;2.40;;;;;;;17.28;78.18;98856.15;219456;1274;22637;-68
2022/06/02 06:42:27;;;;;;;2.20;2.10;;;;;;;17.37;77.26;98862.84;218910;1274;25470;-68
2022/06/02 06:48:45;;;;;;;3.30;3.10;;;;;;;17.61;76.87;98866.15;219213;1273;25247;-67
2022/06/02 06:54:26;;;;;;;4.30;3.90;;;;;;;17.84;75.73;98879.90;218941;1273;22550;-67
2022/06/02 06:59:54;;;;;;;4.00;3.70;;;;;;;17.71;74.63;98893.45;218817;1275;24783;-69
2022/06/02 07:05:13;;;;;;;4.80;4.40;;;;;;;17.38;73.76;98909.98;219031;1273;23361;-68
2022/06/02 07:10:21;;;;;;;5.60;5.00;;;;;;;16.95;72.90;98924.68;219151;1274;22535;-67
2022/06/02 07:15:29;;;;;;;5.90;5.30;;;;;;;16.55;72.93;98936.05;219457;1273;22696;-68
2022/06/02 07:28:15;;;;;;;6.60;5.90;;;;;;;16.66;72.95;98947.30;218978;1273;27082;-68
2022/06/02 07:33:50;;;;;;;6.60;5.70;;;;;;;16.92;72.02;98949.38;218247;1281;29246;-69
2022/06/02 07:39:14;;;;;;;5.70;5.10;;;;;;;17.05;71.58;98964.73;219019;1276;24762;-69
2022/06/02 07:44:49;;;;;;;4.80;4.40;;;;;;;17.23;71.35;98968.38;219185;1273;25262;-69
2022/06/02 07:50:19;;;;;;;4.60;4.20;;;;;;;17.48;70.66;98979.81;220264;1273;22926;-68
2022/06/02 07:56:00;;;;;;;3.90;3.60;;;;;;;17.73;69.83;98989.03;219483;1273;24271;-68
2022/06/02 08:01:45;;;;;;;3.70;3.30;;;;;;;17.96;68.19;99001.95;219021;1274;22627;-68
2022/06/02 08:07:25;;;;;;;3.30;3.00;;;;;;;18.14;66.96;99010.15;219193;1273;23454;-68
2022/06/02 08:12:48;;;;;;;3.10;2.90;;;;;;;18.43;66.98;99014.54;219325;1273;22992;-68
2022/06/02 08:18:17;;;;;;;4.00;2.90;;;;;;;18.75;65.86;99025.69;218981;1273;22536;-68
2022/06/02 08:23:53;;;;;;;3.20;2.90;;;;;;;18.92;64.65;99038.55;218927;1273;26372;-67
2022/06/02 08:29:18;;;;;;;3.00;2.80;;;;;;;18.81;63.57;99047.69;219777;1273;23512;-67
2022/06/02 08:34:29;;;;;;;3.90;3.20;;;;;;;18.75;63.42;99053.14;218891;1273;24779;-67
2022/06/02 08:40:14;;;;;;;3.40;2.70;;;;;;;18.63;62.81;99060.57;218923;1273;22642;-68
2022/06/02 08:45:41;;;;;;;3.60;2.50;;;;;;;18.32;62.91;99060.04;218304;1274;22556;-68
2022/06/02 08:50:43;;;;;;;2.40;2.20;;;;;;;18.19;62.51;99064.52;219185;1276;22532;-67
2022/06/02 08:56:39;;;;;;;2.30;2.10;;;;;;;18.00;61.77;99069.89;219548;1273;22566;-66
2022/06/02 09:02:21;;;;;;;2.40;2.20;;;;;;;17.83;61.11;99074.24;219167;1273;22633;-66
2022/06/02 09:07:48;;;;;;;1.90;1.80;;;;;;;17.79;60.81;99068.62;219276;1274;22538;-66
2022/06/02 09:13:17;;;;;;;3.40;2.20;;;;;;;17.75;60.89;99076.58;219373;1274;22551;-67
2022/06/02 09:18:53;;;;;;;2.10;1.90;;;;;;;17.63;60.51;99075.13;219409;1273;24347;-67
2022/06/02 09:24:46;;;;;;;2.30;2.10;;;;;;;17.57;60.54;99084.97;219636;1274;23046;-67
2022/06/02 09:30:15;;;;;;;2.00;1.90;;;;;;;17.65;60.19;99088.34;219419;1274;25547;-67
2022/06/02 09:35:22;;;;;;;2.20;2.00;;;;;;;17.77;60.30;99087.48;219390;1273;25899;-67
2022/06/02 09:41:10;;;;;;;2.00;1.90;;;;;;;18.03;60.26;99084.87;219428;1274;25125;-67
2022/06/02 09:47:05;;;;;;;2.40;2.00;;;;;;;18.31;59.45;99083.92;219503;1273;22678;-66
2022/06/02 09:52:19;;;;;;;1.90;1.80;;;;;;;18.43;58.97;99088.68;221032;1273;22547;-67
2022/06/02 09:57:55;;;;;;;2.40;2.20;;;;;;;18.59;58.87;99089.34;219751;1273;22534;-67
2022/06/02 10:03:22;;;;;;;2.10;1.90;;;;;;;18.75;58.48;99084.39;219436;1274;26175;-68
2022/06/02 10:09:01;;;;;;;2.60;2.40;;;;;;;19.03;58.34;99084.41;219920;1273;24143;-68
2022/06/02 10:14:41;;;;;;;2.20;2.10;;;;;;;19.17;57.45;99083.96;219207;1274;22577;-67
2022/06/02 10:20:19;;;;;;;4.00;2.90;;;;;;;19.26;57.15;99084.55;218677;1273;24262;-67
2022/06/02 10:26:00;;;;;;;2.90;2.70;;;;;;;19.49;55.79;99086.20;219063;1274;22747;-68
2022/06/02 10:31:28;;;;;;;2.60;2.40;;;;;;;19.45;56.29;99084.11;219461;1273;25325;-67
2022/06/02 10:36:49;;;;;;;2.10;2.00;;;;;;;19.81;56.49;99084.95;219306;1274;25322;-67
2022/06/02 10:41:57;;;;;;;1.70;1.60;;;;;;;20.02;55.37;99091.08;219464;1273;24100;-67
2022/06/02 10:47:11;;;;;;;2.20;1.90;;;;;;;20.13;54.67;99092.18;219427;1273;25476;-66
2022/06/02 10:52:32;;;;;;;2.10;1.90;;;;;;;20.20;54.04;99091.21;219322;1273;26440;-68
2022/06/02 10:58:38;;;;;;;1.90;1.80;;;;;;;20.24;53.94;99088.60;219235;1273;23850;-68
2022/06/02 11:04:56;;;;;;;2.20;2.00;;;;;;;20.46;53.97;99091.63;219148;1273;22574;-68
2022/06/02 11:10:27;;;;;;;2.00;1.90;;;;;;;20.58;53.56;99087.67;219506;1274;25259;-67
2022/06/02 11:16:21;;;;;;;2.00;1.80;;;;;;;20.72;53.07;99083.80;219229;1273;22544;-67
2022/06/02 11:22:17;;;;;;;2.20;1.80;;;;;;;20.88;52.76;99090.17;219254;1274;25265;-67
2022/06/02 11:27:59;;;;;;;2.50;2.20;;;;;;;21.01;52.26;99087.65;219540;1274;22665;-67
2022/06/02 11:33:22;;;;;;;2.30;2.10;;;;;;;21.12;52.03;99087.98;219403;1273;22556;-68
2022/06/02 11:38:42;;;;;;;1.70;1.60;;;;;;;21.13;50.54;99091.54;219710;1273;25456;-68
2022/06/02 11:44:03;;;;;;;1.70;1.60;;;;;;;20.85;49.61;99089.25;219691;1274;22557;-68
2022/06/02 11:49:58;;;;;;;7.50;6.30;;;;;;;20.64;50.26;99090.02;219526;1274;22666;-68
2022/06/02 11:55:32;;;;;;;3.60;3.00;;;;;;;20.81;50.49;99087.06;219748;1273;22694;-68
2022/06/02 12:00:57;;;;;;;2.70;2.10;;;;;;;21.03;49.29;99080.06;219309;1273;22623;-68
2022/06/02 12:06:28;;;;;;;1.40;1.30;;;;;;;21.13;48.40;99084.37;219456;1274;22749;-68
2022/06/02 12:11:46;;;;;;;1.60;1.50;;;;;;;21.25;48.01;99084.42;218149;1273;1980266;-68
2022/06/02 12:17:27;;;;;;;1.20;1.20;;;;;;;21.34;46.75;99080.96;219476;1273;22543;-67
2022/06/02 12:22:48;;;;;;;1.70;1.60;;;;;;;21.40;46.29;99083.05;219681;1274;22611;-67
2022/06/02 12:28:27;;;;;;;2.80;1.50;;;;;;;21.36;46.09;99076.74;219663;1273;22555;-67
2022/06/02 12:33:45;;;;;;;1.60;1.50;;;;;;;21.38;45.52;99071.48;219160;1273;25394;-68
2022/06/02 12:39:21;;;;;;;1.30;1.20;;;;;;;21.43;45.34;99075.83;219820;1274;23086;-68
2022/06/02 12:44:48;;;;;;;2.20;1.40;;;;;;;21.45;45.22;99077.04;219642;1274;24128;-69
2022/06/02 12:50:19;;;;;;;3.30;2.30;;;;;;;21.49;45.26;99076.25;219352;1273;26294;-69
2022/06/02 12:55:52;;;;;;;1.80;1.70;;;;;;;21.56;45.08;99067.64;219546;1273;22753;-67
2022/06/02 13:01:27;;;;;;;3.00;1.60;;;;;;;21.59;45.06;99068.23;219552;1273;22522;-68
2022/06/02 13:07:08;;;;;;;1.80;1.70;;;;;;;21.75;45.55;99068.23;219498;1273;24793;-67
2022/06/02 13:13:00;;;;;;;2.10;1.80;;;;;;;21.77;44.88;99065.16;219234;1274;22531;-69
2022/06/02 13:18:51;;;;;;;1.60;1.50;;;;;;;21.76;45.05;99065.43;219311;1274;22606;-68
2022/06/02 13:24:41;;;;;;;2.20;2.00;;;;;;;21.82;44.93;99062.67;219125;1273;22473;-68
2022/06/02 13:30:34;;;;;;;2.50;2.30;;;;;;;21.95;44.79;99058.36;219359;1273;22713;-67
2022/06/02 13:35:59;;;;;;;2.10;2.00;;;;;;;22.05;44.61;99060.60;219137;1273;25254;-67
2022/06/02 13:41:32;;;;;;;2.30;2.10;;;;;;;22.19;44.10;99068.13;219496;1274;23829;-67
2022/06/02 13:46:54;;;;;;;2.00;1.90;;;;;;;22.20;43.58;99068.39;219032;1274;22561;-68
2022/06/02 13:52:28;;;;;;;3.00;2.80;;;;;;;22.22;42.99;99074.88;219296;1273;24377;-68
2022/06/02 13:58:12;;;;;;;4.50;2.70;;;;;;;22.17;42.82;99078.14;219533;1273;25412;-68
2022/06/02 14:03:32;;;;;;;2.20;2.00;;;;;;;22.05;43.43;99072.54;219460;1274;24230;-69
2022/06/02 14:09:58;;;;;;;2.40;2.20;;;;;;;22.23;43.76;99072.95;219709;1274;22710;-67
2022/06/02 14:15:51;;;;;;;2.20;2.10;;;;;;;22.29;42.80;99068.79;219268;1277;24144;-70
2022/06/02 14:21:54;;;;;;;3.10;2.90;;;;;;;22.37;42.67;99066.78;219646;1273;23701;-67
2022/06/02 14:27:46;;;;;;;2.60;1.90;;;;;;;22.57;42.94;99073.09;218447;1282;22851;-68
2022/06/02 14:33:45;;;;;;;2.40;2.00;;;;;;;22.67;42.70;99073.50;218336;1282;22788;-67
2022/06/02 14:39:40;;;;;;;3.00;1.90;;;;;;;22.62;42.89;99072.70;219517;1273;22564;-68
2022/06/02 14:45:37;;;;;;;3.80;1.90;;;;;;;22.54;43.08;99075.85;219803;1273;22567;-69
2022/06/02 14:51:43;;;;;;;2.20;1.80;;;;;;;22.50;43.22;99067.73;219600;1274;25363;-69
2022/06/02 14:57:38;;;;;;;2.30;2.10;;;;;;;22.55;43.32;99068.15;219158;1274;24378;-69
2022/06/02 15:03:23;;;;;;;2.30;1.80;;;;;;;22.30;43.27;99062.73;219582;1273;24293;-68
2022/06/02 15:09:31;;;;;;;3.20;2.20;;;;;;;22.25;43.50;99059.89;219825;1274;22532;-68
2022/06/02 15:14:54;;;;;;;2.00;1.90;;;;;;;22.35;43.30;99056.20;218311;1281;24327;-68
2022/06/02 15:20:17;;;;;;;2.50;2.30;;;;;;;22.34;42.89;99054.64;219340;1274;24151;-68
2022/06/02 15:26:20;;;;;;;2.30;2.00;;;;;;;22.33;43.13;99052.14;219702;1273;25381;-68
2022/06/02 15:31:48;;;;;;;2.10;1.90;;;;;;;22.38;43.09;99050.67;219401;1274;22586;-70
2022/06/02 15:37:19;;;;;;;2.10;2.00;;;;;;;22.41;43.32;99049.02;219257;1276;22555;-68
2022/06/02 15:42:44;;;;;;;2.20;2.00;;;;;;;22.48;43.62;99052.73;219497;1274;22697;-68
2022/06/02 15:48:16;;;;;;;2.10;1.90;;;;;;;22.49;43.58;99048.53;219897;1273;22551;-70
2022/06/02 15:53:21;;;;;;;2.30;2.10;;;;;;;22.39;43.58;99055.06;219790;1273;23971;-67
2022/06/02 15:58:46;;;;;;;2.20;2.00;;;;;;;22.30;43.49;99053.93;219912;1274;22538;-69
2022/06/02 16:04:22;;;;;;;2.10;1.90;;;;;;;22.28;43.55;99052.23;219750;1273;26391;-67
2022/06/02 16:15:32;;;;;;;2.10;1.90;;;;;;;22.17;43.57;99065.89;219391;1273;22735;-68
2022/06/02 16:21:08;;;;;;;2.10;2.00;;;;;;;22.08;43.85;99061.13;219638;1274;25306;-68
2022/06/02 16:27:06;;;;;;;1.90;1.80;;;;;;;22.10;43.53;99062.80;219431;1274;24423;-69
2022/06/02 16:32:37;;;;;;;2.00;1.70;;;;;;;22.04;43.66;99065.48;219356;1274;22544;-69
2022/06/02 16:38:17;;;;;;;2.60;1.90;;;;;;;21.94;43.73;99065.35;219718;1274;22557;-68
2022/06/02 16:44:03;;;;;;;2.20;2.00;;;;;;;21.84;44.22;99063.66;219437;1274;22573;-69
2022/06/02 16:49:43;;;;;;;1.90;1.80;;;;;;;21.69;44.62;99063.66;219110;1276;25543;-69
2022/06/02 16:55:09;;;;;;;3.90;2.20;;;;;;;21.59;44.74;99065.63;219226;1275;22562;-68
2022/06/02 17:00:35;;;;;;;2.10;2.00;;;;;;;21.49;44.89;99068.80;219940;1274;22534;-67
2022/06/02 17:06:04;;;;;;;1.70;1.60;;;;;;;21.44;44.98;99074.18;219621;1277;25371;-69
2022/06/02 17:11:14;;;;;;;3.60;2.00;;;;;;;21.98;45.80;99074.31;219805;1274;23049;-67
2022/06/02 17:16:47;;;;;;;3.10;1.80;;;;;;;23.32;45.17;99073.19;220018;1274;24260;-69
2022/06/02 17:22:17;;;;;;;3.00;2.70;;;;;;;24.63;44.11;99071.48;219533;1274;22718;-67
2022/06/02 17:27:36;;;;;;;2.90;2.60;;;;;;;25.81;42.55;99074.55;219651;1274;24250;-68
2022/06/02 17:33:02;;;;;;;3.60;2.60;;;;;;;26.65;40.91;99079.52;219774;1273;24418;-69
2022/06/02 17:38:15;;;;;;;3.60;2.80;;;;;;;26.47;39.35;99088.96;219335;1274;22537;-68
2022/06/02 17:43:46;;;;;;;4.60;2.90;;;;;;;25.34;39.52;99092.17;219694;1274;25320;-68
2022/06/02 17:49:24;;;;;;;5.80;3.00;;;;;;;24.08;40.11;99093.89;219388;1274;24369;-68
2022/06/02 17:54:47;;;;;;;7.80;3.50;;;;;;;22.93;41.32;99089.80;219584;1273;22639;-68
2022/06/02 18:00:27;;;;;;;3.30;2.30;;;;;;;22.00;42.29;99090.89;219709;1274;25480;-68
2022/06/02 18:05:48;;;;;;;2.00;1.90;;;;;;;21.26;43.28;99099.45;219458;1276;25217;-68
2022/06/02 18:10:53;;;;;;;6.30;5.80;;;;;;;20.65;44.03;99102.17;219369;1276;24257;-69
2022/06/02 18:16:33;;;;;;;3.00;1.80;;;;;;;20.26;44.32;99106.08;219571;1275;24253;-68
2022/06/02 18:22:09;;;;;;;2.10;1.80;;;;;;;19.86;44.87;99112.98;219832;1274;24283;-69
2022/06/02 18:27:14;;;;;;;2.00;1.90;;;;;;;19.54;45.59;99120.11;219808;1274;22544;-68
2022/06/02 18:32:30;;;;;;;2.60;2.40;;;;;;;19.24;46.14;99127.00;219770;1274;22559;-68
2022/06/02 18:38:13;;;;;;;3.00;2.40;;;;;;;18.94;46.97;99131.89;219573;1274;22694;-69
2022/06/02 18:43:49;;;;;;;1.70;1.60;;;;;;;18.67;47.33;99140.95;219507;1275;22566;-67
2022/06/02 18:49:21;;;;;;;2.80;2.10;;;;;;;18.43;47.79;99154.42;219369;1275;22553;-70
2022/06/02 18:55:21;;;;;;;2.90;1.80;;;;;;;18.23;48.01;99157.73;219308;1274;24274;-68
2022/06/02 19:00:52;;;;;;;2.10;1.70;;;;;;;18.03;48.37;99162.52;219643;1274;25323;-67
2022/06/02 19:17:40;;;;;;;2.60;1.90;;;;;;;17.44;49.40;99186.16;219604;1275;22541;-68
2022/06/02 19:22:42;;;;;;;2.80;2.10;;;;;;;17.25;49.80;99198.26;219470;1276;24421;-68
2022/06/02 19:28:36;;;;;;;2.30;1.90;;;;;;;17.10;50.24;99198.38;219385;1275;22631;-68
2022/06/02 19:34:13;;;;;;;2.60;2.00;;;;;;;16.94;50.64;99206.92;219557;1274;24302;-67
2022/06/02 19:39:50;;;;;;;3.40;3.10;;;;;;;16.81;51.04;99210.80;219598;1275;25376;-68
2022/06/02 19:45:36;;;;;;;4.60;3.60;;;;;;;16.71;51.51;99211.98;219476;1274;25310;-68
2022/06/02 19:50:59;;;;;;;4.90;3.90;;;;;;;16.64;51.66;99213.19;219320;1278;22704;-69
2022/06/02 19:56:06;;;;;;;4.20;3.30;;;;;;;16.56;52.39;99214.86;220013;1274;22561;-71
2022/06/02 20:01:33;;;;;;;4.30;3.50;;;;;;;16.45;52.69;99221.23;219721;1274;22554;-69
2022/06/02 20:06:36;;;;;;;3.40;3.20;;;;;;;16.32;52.86;99228.68;219641;1274;26507;-69
2022/06/02 20:11:43;;;;;;;3.60;3.10;;;;;;;16.22;53.06;99230.85;219600;1274;22990;-68
2022/06/02 20:17:14;;;;;;;3.80;3.40;;;;;;;16.12;53.53;99235.04;219622;1274;24328;-68
2022/06/02 20:22:34;;;;;;;3.70;2.70;;;;;;;16.02;54.09;99234.77;220063;1277;22700;-68
2022/06/02 20:28:08;;;;;;;2.90;2.60;;;;;;;15.93;54.48;99243.35;219736;1274;25229;-69
2022/06/02 20:33:30;;;;;;;3.50;2.60;;;;;;;15.82;54.67;99238.89;219683;1274;22534;-70
2022/06/02 20:38:47;;;;;;;3.40;3.10;;;;;;;15.68;54.96;99239.14;219685;1274;22564;-70
2022/06/02 20:44:05;;;;;;;3.30;2.80;;;;;;;15.56;55.16;99243.04;219427;1274;25380;-72
2022/06/02 20:49:36;;;;;;;3.80;3.00;;;;;;;15.41;55.27;99246.62;219522;1274;24297;-69
2022/06/02 20:54:54;;;;;;;3.60;3.10;;;;;;;15.28;55.62;99247.38;219515;1274;22564;-69
2022/06/02 21:00:14;;;;;;;4.10;3.60;;;;;;;15.17;56.17;99252.66;219573;1274;22713;-68
2022/06/02 21:05:19;;;;;;;4.10;3.70;;;;;;;15.05;56.48;99253.94;219625;1274;24367;-69
2022/06/02 21:10:40;;;;;;;5.40;4.50;;;;;;;14.90;56.83;99249.40;219551;1274;25500;-68
2022/06/02 21:16:16;;;;;;;6.20;5.00;;;;;;;14.76;57.16;99248.60;219921;1274;24231;-68
2022/06/02 21:21:27;;;;;;;6.60;4.70;;;;;;;14.59;57.62;99256.86;219288;1276;22561;-68
2022/06/02 21:26:54;;;;;;;6.00;4.60;;;;;;;14.46;57.87;99257.30;219775;1274;25248;-68
2022/06/02 21:32:13;;;;;;;6.90;5.30;;;;;;;14.31;58.28;99258.16;219797;1274;22921;-68
2022/06/02 21:37:41;;;;;;;6.40;5.20;;;;;;;14.22;58.65;99256.55;219725;1273;24343;-69
2022/06/02 21:43:36;;;;;;;7.00;5.00;;;;;;;14.15;58.91;99260.17;219477;1274;22541;-69
2022/06/02 21:48:47;;;;;;;5.60;4.90;;;;;;;14.08;59.02;99256.77;219427;1274;25180;-67
2022/06/02 21:54:14;;;;;;;6.40;4.60;;;;;;;14.00;59.19;99258.33;219542;1275;24054;-69
2022/06/02 21:59:22;;;;;;;;;;;;;;;13.92;59.41;99265.00;219574;1274;24266;-69
2022/06/02 22:04:27;;;;;;;5.10;4.60;;;;;;;13.83;59.79;99265.81;219523;1273;22678;-69
2022/06/02 22:09:41;;;;;;;4.80;4.30;;;;;;;13.76;60.05;99275.36;219593;1274;24325;-69
2022/06/02 22:15:06;;;;;;;5.70;4.50;;;;;;;13.72;60.30;99273.44;219307;1274;22553;-68
2022/06/02 22:26:34;;;;;;;5.40;4.60;;;;;;;13.61;60.94;99274.34;219373;1274;24253;-69
2022/06/02 22:32:15;;;;;;;5.00;4.50;;;;;;;13.52;61.14;99272.98;219494;1274;22614;-69
2022/06/02 22:37:23;;;;;;;8.10;5.30;;;;;;;13.40;61.35;99276.90;219282;1274;23404;-68
2022/06/02 22:42:28;;;;;;;7.50;5.20;;;;;;;13.28;61.70;99278.94;219556;1274;22539;-68
2022/06/02 22:48:04;;;;;;;5.90;5.30;;;;;;;13.17;62.39;99286.48;219559;1274;22555;-68
2022/06/02 22:53:38;;;;;;;9.90;6.00;;;;;;;13.03;62.87;99287.77;219226;1274;22599;-67
2022/06/02 22:59:05;;;;;;;7.80;5.80;;;;;;;12.92;62.98;99288.78;219298;1274;22538;-68
2022/06/02 23:04:16;;;;;;;7.50;6.10;;;;;;;12.80;63.30;99288.63;219454;1274;25250;-68
2022/06/02 23:09:56;;;;;;;6.60;5.90;;;;;;;12.71;63.60;99296.55;219357;1274;25248;-68
2022/06/02 23:15:19;;;;;;;13.00;6.60;;;;;;;12.60;63.95;99303.67;219502;1274;22664;-69
2022/06/02 23:20:39;;;;;;;8.10;6.80;;;;;;;12.53;64.62;99307.27;219567;1274;22643;-67
2022/06/02 23:26:09;;;;;;;8.50;6.70;;;;;;;12.44;64.55;99310.77;219301;1275;22544;-69
2022/06/02 23:31:31;;;;;;;8.60;6.90;;;;;;;12.33;64.96;99319.91;219695;1274;24289;-67
2022/06/02 23:37:00;;;;;;;8.50;7.20;;;;;;;12.24;65.42;99314.42;219699;1274;24387;-69
2022/06/02 23:48:14;;;;;;;8.90;7.30;;;;;;;12.12;66.19;99319.70;219589;1274;22544;-68
2022/06/02 23:54:05;;;;;;;10.30;7.30;;;;;;;12.15;66.46;99323.23;219374;1276;25263;-68
2022/06/02 23:59:23;;;;;;;7.90;6.60;;;;;;;12.23;66.78;99316.95;219457;1274;22730;-68
